sensor_id;sensor_type;location;lat;lon;timestamp;P1;durP1;ratioP1;P2;durP2;ratioP2
44694;SDS011;32845;59.422;17.930;2023-02-22T00:01:17;2.88;;;1.77;;
44694;SDS011;32845;59.422;17.930;2023-02-22T00:06:17;4.70;;;1.90;;
44694;SDS011;32845;59.422;17.930;2023-02-22T00:10:49;5.85;;;2.00;;
44694;SDS011;32845;59.422;17.930;2023-02-22T00:15:21;3.25;;;1.73;;
44694;SDS011;32845;59.422;17.930;2023-02-22T00:19:56;2.85;;;1.55;;
44694;SDS011;32845;59.422;17.930;2023-02-22T00:24:26;3.03;;;1.35;;
44694;SDS011;32845;59.422;17.930;2023-02-22T00:28:58;4.32;;;1.80;;
44694;SDS011;32845;59.422;17.930;2023-02-22T00:33:29;3.08;;;1.65;;
44694;SDS011;32845;59.422;17.930;2023-02-22T00:38:01;3.00;;;1.63;;
44694;SDS011;32845;59.422;17.930;2023-02-22T00:42:32;2.33;;;1.38;;
44694;SDS011;32845;59.422;17.930;2023-02-22T00:47:03;3.83;;;1.67;;
44694;SDS011;32845;59.422;17.930;2023-02-22T00:51:34;6.40;;;2.03;;
44694;SDS011;32845;59.422;17.930;2023-02-22T00:56:04;2.97;;;1.70;;
44694;SDS011;32845;59.422;17.930;2023-02-22T01:00:37;6.18;;;1.92;;
44694;SDS011;32845;59.422;17.930;2023-02-22T01:05:10;3.00;;;1.50;;
44694;SDS011;32845;59.422;17.930;2023-02-22T01:09:43;2.42;;;1.50;;
44694;SDS011;32845;59.422;17.930;2023-02-22T01:14:13;3.58;;;1.92;;
44694;SDS011;32845;59.422;17.930;2023-02-22T01:18:44;3.85;;;1.67;;
44694;SDS011;32845;59.422;17.930;2023-02-22T01:23:15;2.85;;;1.52;;
44694;SDS011;32845;59.422;17.930;2023-02-22T01:27:46;2.83;;;1.77;;
44694;SDS011;32845;59.422;17.930;2023-02-22T01:32:19;2.70;;;1.58;;
44694;SDS011;32845;59.422;17.930;2023-02-22T01:36:49;2.85;;;1.60;;
44694;SDS011;32845;59.422;17.930;2023-02-22T01:41:20;5.18;;;2.00;;
44694;SDS011;32845;59.422;17.930;2023-02-22T01:46:04;2.63;;;1.42;;
44694;SDS011;32845;59.422;17.930;2023-02-22T01:55:40;2.72;;;1.73;;
44694;SDS011;32845;59.422;17.930;2023-02-22T02:00:17;3.80;;;1.70;;
44694;SDS011;32845;59.422;17.930;2023-02-22T02:04:50;4.07;;;1.67;;
44694;SDS011;32845;59.422;17.930;2023-02-22T02:09:29;3.53;;;1.73;;
44694;SDS011;32845;59.422;17.930;2023-02-22T02:14:12;3.53;;;1.77;;
44694;SDS011;32845;59.422;17.930;2023-02-22T02:18:43;9.75;;;1.80;;
44694;SDS011;32845;59.422;17.930;2023-02-22T02:42:39;3.75;;;1.65;;
44694;SDS011;32845;59.422;17.930;2023-02-22T02:47:26;3.78;;;2.13;;
44694;SDS011;32845;59.422;17.930;2023-02-22T02:52:04;4.40;;;1.90;;
44694;SDS011;32845;59.422;17.930;2023-02-22T02:56:37;6.72;;;1.95;;
44694;SDS011;32845;59.422;17.930;2023-02-22T03:01:08;4.80;;;1.88;;
44694;SDS011;32845;59.422;17.930;2023-02-22T03:15:49;4.93;;;1.77;;
44694;SDS011;32845;59.422;17.930;2023-02-22T03:20:27;2.88;;;1.50;;
44694;SDS011;32845;59.422;17.930;2023-02-22T03:25:21;2.85;;;1.50;;
44694;SDS011;32845;59.422;17.930;2023-02-22T03:29:59;3.78;;;1.80;;
44694;SDS011;32845;59.422;17.930;2023-02-22T03:34:42;4.97;;;2.00;;
44694;SDS011;32845;59.422;17.930;2023-02-22T03:39:19;4.05;;;2.10;;
44694;SDS011;32845;59.422;17.930;2023-02-22T03:44:04;4.38;;;2.00;;
44694;SDS011;32845;59.422;17.930;2023-02-22T03:48:50;2.28;;;1.50;;
44694;SDS011;32845;59.422;17.930;2023-02-22T03:53:29;6.72;;;1.90;;
44694;SDS011;32845;59.422;17.930;2023-02-22T03:58:03;3.25;;;1.42;;
44694;SDS011;32845;59.422;17.930;2023-02-22T04:02:37;6.55;;;1.73;;
44694;SDS011;32845;59.422;17.930;2023-02-22T04:07:08;3.78;;;1.80;;
44694;SDS011;32845;59.422;17.930;2023-02-22T04:11:39;3.17;;;1.65;;
44694;SDS011;32845;59.422;17.930;2023-02-22T04:16:10;3.38;;;1.90;;
44694;SDS011;32845;59.422;17.930;2023-02-22T04:20:40;6.68;;;1.98;;
44694;SDS011;32845;59.422;17.930;2023-02-22T04:25:12;8.32;;;2.05;;
44694;SDS011;32845;59.422;17.930;2023-02-22T04:29:43;2.85;;;1.65;;
44694;SDS011;32845;59.422;17.930;2023-02-22T04:34:14;5.82;;;2.30;;
44694;SDS011;32845;59.422;17.930;2023-02-22T04:38:45;3.70;;;1.88;;
44694;SDS011;32845;59.422;17.930;2023-02-22T04:43:16;4.18;;;1.88;;
44694;SDS011;32845;59.422;17.930;2023-02-22T04:47:47;3.67;;;1.90;;
44694;SDS011;32845;59.422;17.930;2023-02-22T04:52:18;8.35;;;2.17;;
44694;SDS011;32845;59.422;17.930;2023-02-22T04:56:49;4.22;;;1.98;;
44694;SDS011;32845;59.422;17.930;2023-02-22T05:01:20;3.42;;;2.10;;
44694;SDS011;32845;59.422;17.930;2023-02-22T05:05:51;3.17;;;1.85;;
44694;SDS011;32845;59.422;17.930;2023-02-22T05:10:22;5.05;;;2.22;;
44694;SDS011;32845;59.422;17.930;2023-02-22T05:14:53;4.15;;;2.03;;
44694;SDS011;32845;59.422;17.930;2023-02-22T05:19:24;3.83;;;2.13;;
44694;SDS011;32845;59.422;17.930;2023-02-22T05:23:55;2.92;;;1.88;;
44694;SDS011;32845;59.422;17.930;2023-02-22T05:28:26;5.43;;;2.35;;
44694;SDS011;32845;59.422;17.930;2023-02-22T05:32:57;4.53;;;2.05;;
44694;SDS011;32845;59.422;17.930;2023-02-22T05:37:28;4.55;;;1.98;;
44694;SDS011;32845;59.422;17.930;2023-02-22T05:41:59;4.75;;;2.45;;
44694;SDS011;32845;59.422;17.930;2023-02-22T05:46:29;5.03;;;2.28;;
44694;SDS011;32845;59.422;17.930;2023-02-22T05:51:00;4.53;;;2.55;;
44694;SDS011;32845;59.422;17.930;2023-02-22T05:55:32;5.22;;;2.50;;
44694;SDS011;32845;59.422;17.930;2023-02-22T06:00:04;5.43;;;2.53;;
44694;SDS011;32845;59.422;17.930;2023-02-22T06:04:36;4.68;;;2.53;;
44694;SDS011;32845;59.422;17.930;2023-02-22T06:09:06;5.00;;;2.58;;
44694;SDS011;32845;59.422;17.930;2023-02-22T06:13:37;7.10;;;2.38;;
44694;SDS011;32845;59.422;17.930;2023-02-22T06:18:08;7.55;;;3.30;;
44694;SDS011;32845;59.422;17.930;2023-02-22T06:22:40;8.88;;;3.20;;
44694;SDS011;32845;59.422;17.930;2023-02-22T06:27:10;8.82;;;3.03;;
44694;SDS011;32845;59.422;17.930;2023-02-22T06:31:41;9.50;;;2.72;;
44694;SDS011;32845;59.422;17.930;2023-02-22T06:36:12;9.50;;;3.33;;
44694;SDS011;32845;59.422;17.930;2023-02-22T06:40:42;5.85;;;3.00;;
44694;SDS011;32845;59.422;17.930;2023-02-22T06:45:15;6.30;;;3.63;;
44694;SDS011;32845;59.422;17.930;2023-02-22T06:49:51;8.07;;;3.50;;
44694;SDS011;32845;59.422;17.930;2023-02-22T06:54:22;7.70;;;3.42;;
44694;SDS011;32845;59.422;17.930;2023-02-22T06:58:53;9.75;;;3.88;;
44694;SDS011;32845;59.422;17.930;2023-02-22T07:03:23;8.95;;;4.25;;
44694;SDS011;32845;59.422;17.930;2023-02-22T07:07:59;7.80;;;3.47;;
44694;SDS011;32845;59.422;17.930;2023-02-22T07:12:34;11.25;;;4.85;;
44694;SDS011;32845;59.422;17.930;2023-02-22T07:17:05;8.18;;;4.03;;
44694;SDS011;32845;59.422;17.930;2023-02-22T07:21:36;7.82;;;3.67;;
44694;SDS011;32845;59.422;17.930;2023-02-22T07:26:07;8.38;;;3.75;;
44694;SDS011;32845;59.422;17.930;2023-02-22T07:30:37;7.80;;;3.97;;
44694;SDS011;32845;59.422;17.930;2023-02-22T07:35:19;7.35;;;3.75;;
44694;SDS011;32845;59.422;17.930;2023-02-22T07:39:52;9.02;;;4.05;;
44694;SDS011;32845;59.422;17.930;2023-02-22T07:44:23;7.97;;;3.55;;
44694;SDS011;32845;59.422;17.930;2023-02-22T07:48:54;8.27;;;4.05;;
44694;SDS011;32845;59.422;17.930;2023-02-22T07:53:26;7.22;;;3.63;;
44694;SDS011;32845;59.422;17.930;2023-02-22T07:58:00;7.85;;;3.58;;
44694;SDS011;32845;59.422;17.930;2023-02-22T08:02:33;7.32;;;3.33;;
44694;SDS011;32845;59.422;17.930;2023-02-22T08:07:04;12.48;;;3.83;;
44694;SDS011;32845;59.422;17.930;2023-02-22T08:11:34;10.18;;;3.72;;
44694;SDS011;32845;59.422;17.930;2023-02-22T08:16:05;11.02;;;3.78;;
44694;SDS011;32845;59.422;17.930;2023-02-22T08:20:37;9.23;;;3.40;;
44694;SDS011;32845;59.422;17.930;2023-02-22T08:25:08;6.80;;;3.42;;
44694;SDS011;32845;59.422;17.930;2023-02-22T08:29:39;5.95;;;2.92;;
44694;SDS011;32845;59.422;17.930;2023-02-22T08:34:09;9.80;;;3.78;;
44694;SDS011;32845;59.422;17.930;2023-02-22T08:38:40;8.13;;;3.30;;
44694;SDS011;32845;59.422;17.930;2023-02-22T08:43:11;5.97;;;3.05;;
44694;SDS011;32845;59.422;17.930;2023-02-22T08:47:42;8.45;;;3.90;;
44694;SDS011;32845;59.422;17.930;2023-02-22T08:52:13;6.15;;;3.03;;
44694;SDS011;32845;59.422;17.930;2023-02-22T08:56:44;7.03;;;2.70;;
44694;SDS011;32845;59.422;17.930;2023-02-22T09:01:15;8.48;;;3.50;;
44694;SDS011;32845;59.422;17.930;2023-02-22T09:05:45;8.48;;;3.42;;
44694;SDS011;32845;59.422;17.930;2023-02-22T09:10:17;5.22;;;2.88;;
44694;SDS011;32845;59.422;17.930;2023-02-22T09:14:55;5.63;;;2.60;;
44694;SDS011;32845;59.422;17.930;2023-02-22T09:19:26;5.93;;;2.70;;
44694;SDS011;32845;59.422;17.930;2023-02-22T09:23:57;4.43;;;2.38;;
44694;SDS011;32845;59.422;17.930;2023-02-22T09:28:30;5.80;;;3.00;;
44694;SDS011;32845;59.422;17.930;2023-02-22T09:33:16;5.07;;;2.00;;
44694;SDS011;32845;59.422;17.930;2023-02-22T09:37:48;4.15;;;2.20;;
44694;SDS011;32845;59.422;17.930;2023-02-22T09:47:02;4.00;;;2.03;;
44694;SDS011;32845;59.422;17.930;2023-02-22T09:56:19;4.00;;;2.25;;
44694;SDS011;32845;59.422;17.930;2023-02-22T10:00:54;4.95;;;2.65;;
44694;SDS011;32845;59.422;17.930;2023-02-22T10:05:34;6.88;;;2.30;;
44694;SDS011;32845;59.422;17.930;2023-02-22T10:10:13;4.82;;;2.20;;
44694;SDS011;32845;59.422;17.930;2023-02-22T10:24:57;5.50;;;2.83;;
44694;SDS011;32845;59.422;17.930;2023-02-22T10:34:15;7.20;;;2.30;;
44694;SDS011;32845;59.422;17.930;2023-02-22T10:39:33;4.30;;;2.20;;
44694;SDS011;32845;59.422;17.930;2023-02-22T10:43:56;3.53;;;1.88;;
44694;SDS011;32845;59.422;17.930;2023-02-22T10:48:28;5.57;;;2.40;;
44694;SDS011;32845;59.422;17.930;2023-02-22T10:53:01;5.20;;;2.58;;
44694;SDS011;32845;59.422;17.930;2023-02-22T10:57:34;4.97;;;2.80;;
44694;SDS011;32845;59.422;17.930;2023-02-22T11:07:19;3.93;;;2.40;;
44694;SDS011;32845;59.422;17.930;2023-02-22T11:12:07;6.13;;;2.40;;
44694;SDS011;32845;59.422;17.930;2023-02-22T11:21:30;5.68;;;2.65;;
44694;SDS011;32845;59.422;17.930;2023-02-22T11:26:11;4.97;;;2.60;;
44694;SDS011;32845;59.422;17.930;2023-02-22T11:30:45;6.22;;;2.20;;
44694;SDS011;32845;59.422;17.930;2023-02-22T11:40:20;5.18;;;2.22;;
44694;SDS011;32845;59.422;17.930;2023-02-22T11:49:50;6.60;;;2.13;;
44694;SDS011;32845;59.422;17.930;2023-02-22T11:59:14;4.35;;;2.00;;
44694;SDS011;32845;59.422;17.930;2023-02-22T12:04:17;5.18;;;2.40;;
44694;SDS011;32845;59.422;17.930;2023-02-22T12:18:32;5.72;;;2.60;;
44694;SDS011;32845;59.422;17.930;2023-02-22T12:27:55;5.63;;;2.60;;
44694;SDS011;32845;59.422;17.930;2023-02-22T12:37:23;5.22;;;2.58;;
44694;SDS011;32845;59.422;17.930;2023-02-22T12:41:58;5.82;;;2.33;;
44694;SDS011;32845;59.422;17.930;2023-02-22T12:46:37;7.57;;;2.38;;
44694;SDS011;32845;59.422;17.930;2023-02-22T12:51:18;5.80;;;2.58;;
44694;SDS011;32845;59.422;17.930;2023-02-22T12:55:57;2.72;;;1.80;;
44694;SDS011;32845;59.422;17.930;2023-02-22T13:00:50;4.70;;;2.45;;
44694;SDS011;32845;59.422;17.930;2023-02-22T13:05:26;3.88;;;2.00;;
44694;SDS011;32845;59.422;17.930;2023-02-22T13:19:49;5.40;;;2.53;;
44694;SDS011;32845;59.422;17.930;2023-02-22T13:24:27;5.00;;;2.75;;
44694;SDS011;32845;59.422;17.930;2023-02-22T13:52:41;4.55;;;2.65;;
44694;SDS011;32845;59.422;17.930;2023-02-22T13:57:21;11.25;;;3.10;;
44694;SDS011;32845;59.422;17.930;2023-02-22T14:01:57;7.15;;;3.08;;
44694;SDS011;32845;59.422;17.930;2023-02-22T14:06:36;9.80;;;3.50;;
44694;SDS011;32845;59.422;17.930;2023-02-22T14:20:35;6.68;;;3.03;;
44694;SDS011;32845;59.422;17.930;2023-02-22T14:35:03;6.80;;;2.95;;
44694;SDS011;32845;59.422;17.930;2023-02-22T14:39:46;5.60;;;2.50;;
44694;SDS011;32845;59.422;17.930;2023-02-22T14:44:21;10.20;;;3.50;;
44694;SDS011;32845;59.422;17.930;2023-02-22T14:48:57;10.48;;;2.90;;
44694;SDS011;32845;59.422;17.930;2023-02-22T14:53:40;12.32;;;3.33;;
44694;SDS011;32845;59.422;17.930;2023-02-22T14:58:15;7.93;;;2.60;;
44694;SDS011;32845;59.422;17.930;2023-02-22T15:08:07;8.63;;;3.13;;
44694;SDS011;32845;59.422;17.930;2023-02-22T15:12:38;6.93;;;2.60;;
44694;SDS011;32845;59.422;17.930;2023-02-22T15:21:47;6.55;;;2.40;;
44694;SDS011;32845;59.422;17.930;2023-02-22T15:26:20;8.38;;;3.35;;
44694;SDS011;32845;59.422;17.930;2023-02-22T15:31:13;12.82;;;2.80;;
44694;SDS011;32845;59.422;17.930;2023-02-22T15:35:44;8.55;;;2.92;;
44694;SDS011;32845;59.422;17.930;2023-02-22T15:40:23;13.50;;;3.13;;
44694;SDS011;32845;59.422;17.930;2023-02-22T15:45:01;6.60;;;2.95;;
44694;SDS011;32845;59.422;17.930;2023-02-22T15:49:33;7.30;;;2.88;;
44694;SDS011;32845;59.422;17.930;2023-02-22T15:54:06;5.93;;;2.88;;
44694;SDS011;32845;59.422;17.930;2023-02-22T15:58:45;4.60;;;2.17;;
44694;SDS011;32845;59.422;17.930;2023-02-22T16:03:18;16.60;;;3.00;;
44694;SDS011;32845;59.422;17.930;2023-02-22T16:07:52;10.82;;;3.40;;
44694;SDS011;32845;59.422;17.930;2023-02-22T16:12:25;5.88;;;2.28;;
44694;SDS011;32845;59.422;17.930;2023-02-22T16:17:22;3.70;;;2.28;;
44694;SDS011;32845;59.422;17.930;2023-02-22T16:22:03;12.95;;;2.55;;
44694;SDS011;32845;59.422;17.930;2023-02-22T16:26:47;5.28;;;2.55;;
44694;SDS011;32845;59.422;17.930;2023-02-22T16:31:45;11.82;;;2.85;;
44694;SDS011;32845;59.422;17.930;2023-02-22T16:36:16;7.28;;;2.78;;
44694;SDS011;32845;59.422;17.930;2023-02-22T16:40:49;8.48;;;2.40;;
44694;SDS011;32845;59.422;17.930;2023-02-22T16:45:23;5.75;;;2.72;;
44694;SDS011;32845;59.422;17.930;2023-02-22T16:49:54;5.40;;;2.47;;
44694;SDS011;32845;59.422;17.930;2023-02-22T16:59:05;4.68;;;2.28;;
44694;SDS011;32845;59.422;17.930;2023-02-22T17:03:40;8.68;;;2.80;;
44694;SDS011;32845;59.422;17.930;2023-02-22T17:08:11;6.90;;;2.72;;
44694;SDS011;32845;59.422;17.930;2023-02-22T17:12:45;7.20;;;2.72;;
44694;SDS011;32845;59.422;17.930;2023-02-22T17:17:18;7.57;;;2.67;;
44694;SDS011;32845;59.422;17.930;2023-02-22T17:21:49;4.63;;;2.60;;
44694;SDS011;32845;59.422;17.930;2023-02-22T17:26:19;5.45;;;2.13;;
44694;SDS011;32845;59.422;17.930;2023-02-22T17:30:51;5.95;;;2.92;;
44694;SDS011;32845;59.422;17.930;2023-02-22T17:35:23;11.00;;;2.50;;
44694;SDS011;32845;59.422;17.930;2023-02-22T17:39:55;7.43;;;2.50;;
44694;SDS011;32845;59.422;17.930;2023-02-22T17:44:26;9.48;;;6.70;;
44694;SDS011;32845;59.422;17.930;2023-02-22T17:48:59;7.63;;;2.58;;
44694;SDS011;32845;59.422;17.930;2023-02-22T17:53:30;10.40;;;3.00;;
44694;SDS011;32845;59.422;17.930;2023-02-22T17:58:01;12.50;;;3.35;;
44694;SDS011;32845;59.422;17.930;2023-02-22T18:02:33;6.97;;;3.03;;
44694;SDS011;32845;59.422;17.930;2023-02-22T18:07:04;5.97;;;3.25;;
44694;SDS011;32845;59.422;17.930;2023-02-22T18:11:36;13.07;;;3.47;;
44694;SDS011;32845;59.422;17.930;2023-02-22T18:16:07;10.52;;;4.03;;
44694;SDS011;32845;59.422;17.930;2023-02-22T18:20:45;10.70;;;3.95;;
44694;SDS011;32845;59.422;17.930;2023-02-22T18:25:20;13.20;;;4.07;;
44694;SDS011;32845;59.422;17.930;2023-02-22T18:29:51;8.50;;;4.00;;
44694;SDS011;32845;59.422;17.930;2023-02-22T18:34:22;10.68;;;3.65;;
44694;SDS011;32845;59.422;17.930;2023-02-22T18:38:57;14.35;;;4.20;;
44694;SDS011;32845;59.422;17.930;2023-02-22T18:43:27;7.85;;;4.13;;
44694;SDS011;32845;59.422;17.930;2023-02-22T18:48:00;9.40;;;3.65;;
44694;SDS011;32845;59.422;17.930;2023-02-22T18:52:32;10.85;;;3.95;;
44694;SDS011;32845;59.422;17.930;2023-02-22T18:57:04;10.60;;;4.25;;
44694;SDS011;32845;59.422;17.930;2023-02-22T19:01:35;9.20;;;4.05;;
44694;SDS011;32845;59.422;17.930;2023-02-22T19:06:07;13.68;;;4.57;;
44694;SDS011;32845;59.422;17.930;2023-02-22T19:10:39;15.68;;;5.18;;
44694;SDS011;32845;59.422;17.930;2023-02-22T19:15:09;11.35;;;4.05;;
44694;SDS011;32845;59.422;17.930;2023-02-22T19:19:44;8.63;;;4.40;;
44694;SDS011;32845;59.422;17.930;2023-02-22T19:24:14;18.33;;;4.68;;
44694;SDS011;32845;59.422;17.930;2023-02-22T19:28:48;8.00;;;3.92;;
44694;SDS011;32845;59.422;17.930;2023-02-22T19:33:20;8.90;;;4.38;;
44694;SDS011;32845;59.422;17.930;2023-02-22T19:37:55;10.80;;;4.38;;
44694;SDS011;32845;59.422;17.930;2023-02-22T19:42:25;9.60;;;3.95;;
44694;SDS011;32845;59.422;17.930;2023-02-22T19:46:56;10.25;;;4.07;;
44694;SDS011;32845;59.422;17.930;2023-02-22T19:51:27;12.52;;;4.22;;
44694;SDS011;32845;59.422;17.930;2023-02-22T19:55:59;8.48;;;4.40;;
44694;SDS011;32845;59.422;17.930;2023-02-22T20:00:35;8.07;;;4.10;;
44694;SDS011;32845;59.422;17.930;2023-02-22T20:05:06;6.88;;;3.63;;
44694;SDS011;32845;59.422;17.930;2023-02-22T20:09:40;9.13;;;4.07;;
44694;SDS011;32845;59.422;17.930;2023-02-22T20:14:16;7.95;;;3.75;;
44694;SDS011;32845;59.422;17.930;2023-02-22T20:18:48;16.20;;;5.22;;
44694;SDS011;32845;59.422;17.930;2023-02-22T20:23:20;12.50;;;4.28;;
44694;SDS011;32845;59.422;17.930;2023-02-22T20:27:51;7.53;;;3.80;;
44694;SDS011;32845;59.422;17.930;2023-02-22T20:32:21;27.75;;;4.65;;
44694;SDS011;32845;59.422;17.930;2023-02-22T20:36:53;14.68;;;5.63;;
44694;SDS011;32845;59.422;17.930;2023-02-22T20:41:25;10.10;;;4.32;;
44694;SDS011;32845;59.422;17.930;2023-02-22T20:46:01;9.85;;;3.85;;
44694;SDS011;32845;59.422;17.930;2023-02-22T20:50:33;20.13;;;5.05;;
44694;SDS011;32845;59.422;17.930;2023-02-22T20:55:04;13.02;;;4.28;;
44694;SDS011;32845;59.422;17.930;2023-02-22T20:59:35;11.88;;;3.92;;
44694;SDS011;32845;59.422;17.930;2023-02-22T21:04:06;7.80;;;3.38;;
44694;SDS011;32845;59.422;17.930;2023-02-22T21:08:39;8.80;;;3.83;;
44694;SDS011;32845;59.422;17.930;2023-02-22T21:13:10;9.02;;;3.70;;
44694;SDS011;32845;59.422;17.930;2023-02-22T21:17:41;8.07;;;3.83;;
44694;SDS011;32845;59.422;17.930;2023-02-22T21:22:16;7.15;;;3.28;;
44694;SDS011;32845;59.422;17.930;2023-02-22T21:26:47;8.88;;;3.47;;
44694;SDS011;32845;59.422;17.930;2023-02-22T21:31:18;7.50;;;3.50;;
44694;SDS011;32845;59.422;17.930;2023-02-22T21:35:50;7.53;;;3.22;;
44694;SDS011;32845;59.422;17.930;2023-02-22T21:40:21;9.02;;;3.80;;
44694;SDS011;32845;59.422;17.930;2023-02-22T21:44:55;10.00;;;3.72;;
44694;SDS011;32845;59.422;17.930;2023-02-22T21:49:25;8.45;;;3.45;;
44694;SDS011;32845;59.422;17.930;2023-02-22T21:54:01;12.55;;;3.35;;
44694;SDS011;32845;59.422;17.930;2023-02-22T21:58:33;8.18;;;3.40;;
44694;SDS011;32845;59.422;17.930;2023-02-22T22:03:05;7.72;;;3.75;;
44694;SDS011;32845;59.422;17.930;2023-02-22T22:07:49;9.40;;;3.80;;
44694;SDS011;32845;59.422;17.930;2023-02-22T22:12:19;7.53;;;3.75;;
44694;SDS011;32845;59.422;17.930;2023-02-22T22:16:55;8.75;;;3.42;;
44694;SDS011;32845;59.422;17.930;2023-02-22T22:21:27;9.75;;;3.70;;
44694;SDS011;32845;59.422;17.930;2023-02-22T22:26:01;8.82;;;3.15;;
44694;SDS011;32845;59.422;17.930;2023-02-22T22:30:36;7.18;;;3.08;;
44694;SDS011;32845;59.422;17.930;2023-02-22T22:35:07;5.80;;;3.10;;
44694;SDS011;32845;59.422;17.930;2023-02-22T22:39:43;7.25;;;3.67;;
44694;SDS011;32845;59.422;17.930;2023-02-22T22:44:14;7.15;;;3.70;;
44694;SDS011;32845;59.422;17.930;2023-02-22T22:48:51;6.63;;;3.42;;
44694;SDS011;32845;59.422;17.930;2023-02-22T22:53:21;7.45;;;3.25;;
44694;SDS011;32845;59.422;17.930;2023-02-22T22:57:53;13.80;;;3.95;;
44694;SDS011;32845;59.422;17.930;2023-02-22T23:02:23;7.07;;;3.92;;
44694;SDS011;32845;59.422;17.930;2023-02-22T23:06:54;9.05;;;3.15;;
44694;SDS011;32845;59.422;17.930;2023-02-22T23:11:28;8.68;;;3.63;;
44694;SDS011;32845;59.422;17.930;2023-02-22T23:16:02;11.80;;;3.17;;
44694;SDS011;32845;59.422;17.930;2023-02-22T23:20:37;12.48;;;3.33;;
44694;SDS011;32845;59.422;17.930;2023-02-22T23:25:07;5.82;;;2.80;;
44694;SDS011;32845;59.422;17.930;2023-02-22T23:29:40;7.25;;;3.33;;
44694;SDS011;32845;59.422;17.930;2023-02-22T23:34:11;6.40;;;3.08;;
44694;SDS011;32845;59.422;17.930;2023-02-22T23:38:43;5.60;;;3.10;;
44694;SDS011;32845;59.422;17.930;2023-02-22T23:43:14;6.97;;;3.10;;
44694;SDS011;32845;59.422;17.930;2023-02-22T23:47:45;6.28;;;3.33;;
44694;SDS011;32845;59.422;17.930;2023-02-22T23:52:19;7.45;;;3.47;;
44694;SDS011;32845;59.422;17.930;2023-02-22T23:56:53;6.32;;;3.28;;
